Time;durP1;ratioP1;P1;durP2;ratioP2;P2;SDS_P1;SDS_P2;PMS_P1;PMS_P2;Temp;Humidity;BMP_temperature;BMP_pressure;BME280_temperature;BME280_humidity;BME280_pressure;Samples;Min_cycle;Max_cycle;Signal;HPM_P1;HPM_P2
2023/03/31 00:02:12;;;;;;;12.57;6.20;;;6.70;99.90;;;;;;5094069;28;20558;-50
2023/03/31 00:04:51;;;;;;;12.00;5.50;;;6.70;99.90;;;;;;5092671;28;20048;-49
2023/03/31 00:07:23;;;;;;;10.00;5.85;;;6.70;99.90;;;;;;5085787;28;20044;-49
2023/03/31 00:09:53;;;;;;;11.20;5.95;;;6.70;99.90;;;;;;5093041;28;20048;-48
2023/03/31 00:12:36;;;;;;;9.57;5.57;;;6.60;99.90;;;;;;5091289;28;20054;-48
2023/03/31 00:15:03;;;;;;;13.13;5.60;;;6.60;99.90;;;;;;5088390;28;20085;-49
2023/03/31 00:17:32;;;;;;;9.95;5.55;;;6.50;99.90;;;;;;5093956;28;20078;-49
2023/03/31 00:20:02;;;;;;;11.77;6.68;;;6.50;99.90;;;;;;5092778;28;20124;-48
2023/03/31 00:22:29;;;;;;;10.60;6.00;;;6.50;99.90;;;;;;5093803;28;20040;-49
2023/03/31 00:24:56;;;;;;;13.98;6.80;;;6.60;99.90;;;;;;5084637;28;20095;-48
2023/03/31 00:27:22;;;;;;;17.33;6.68;;;6.60;99.90;;;;;;5093620;28;20071;-48
2023/03/31 00:29:51;;;;;;;13.68;6.68;;;6.60;99.90;;;;;;5089752;28;20032;-48
2023/03/31 00:32:18;;;;;;;12.60;6.72;;;6.70;99.90;;;;;;5069433;28;20045;-50
2023/03/31 00:34:45;;;;;;;13.45;6.20;;;6.80;99.90;;;;;;5080003;28;20094;-48
2023/03/31 00:37:13;;;;;;;12.43;7.03;;;6.60;99.90;;;;;;5092748;28;20071;-48
2023/03/31 00:39:41;;;;;;;9.13;5.88;;;6.60;99.90;;;;;;5073827;28;20046;-48
2023/03/31 00:42:13;;;;;;;;;;;6.60;99.90;;;;;;5084000;28;20044;-49
2023/03/31 00:45:17;;;;;;;13.75;6.35;;;6.60;99.90;;;;;;5073918;28;19957;-49
2023/03/31 00:47:51;;;;;;;9.85;5.78;;;6.50;99.90;;;;;;5092836;28;20538;-48
2023/03/31 00:50:22;;;;;;;10.73;5.78;;;6.40;99.90;;;;;;5074835;28;20046;-49
2023/03/31 00:52:55;;;;;;;11.85;5.47;;;6.40;99.90;;;;;;5072123;28;20093;-48
2023/03/31 00:55:27;;;;;;;17.30;5.90;;;6.40;99.90;;;;;;5076745;28;20044;-48
2023/03/31 00:57:54;;;;;;;11.65;6.00;;;6.40;99.90;;;;;;5089972;28;20054;-48
2023/03/31 01:00:22;;;;;;;12.15;6.50;;;6.50;99.90;;;;;;5092674;28;20512;-48
2023/03/31 01:02:57;;;;;;;14.13;7.40;;;6.50;99.90;;;;;;5074459;28;20044;-49
2023/03/31 01:05:38;;;;;;;13.82;7.13;;;6.50;99.90;;;;;;5093089;28;20131;-49
2023/03/31 01:08:06;;;;;;;14.50;7.70;;;6.60;99.90;;;;;;5073050;28;20040;-50
2023/03/31 01:10:40;;;;;;;15.63;7.20;;;6.70;99.90;;;;;;5092747;28;20443;-48
2023/03/31 01:13:10;;;;;;;10.18;7.15;;;6.70;99.90;;;;;;5089874;28;20532;-48
2023/03/31 01:15:38;;;;;;;15.82;7.82;;;6.80;99.90;;;;;;5092606;28;20028;-49
2023/03/31 01:18:05;;;;;;;14.35;7.05;;;6.90;99.90;;;;;;5073741;28;20040;-49
2023/03/31 01:21:02;;;;;;;13.65;7.78;;;6.90;99.90;;;;;;5092417;28;20039;-49
2023/03/31 01:26:46;;;;;;;15.77;8.10;;;7.00;99.90;;;;;;4989524;28;20062;-51
2023/03/31 01:29:31;;;;;;;14.25;8.40;;;7.00;99.90;;;;;;4990629;28;20042;-51
2023/03/31 01:32:22;;;;;;;12.88;7.75;;;7.00;99.90;;;;;;4992021;28;20458;-50
2023/03/31 01:35:04;;;;;;;11.65;7.55;;;7.00;99.90;;;;;;4985456;28;20053;-50
2023/03/31 01:38:15;;;;;;;12.43;7.22;;;7.00;99.90;;;;;;4994243;28;20046;-50
2023/03/31 01:41:21;;;;;;;12.93;7.18;;;7.00;99.90;;;;;;5006962;28;20057;-50
2023/03/31 01:44:17;;;;;;;9.35;5.53;;;6.90;99.90;;;;;;5011077;28;20490;-52
2023/03/31 01:47:05;;;;;;;15.98;6.57;;;6.80;99.90;;;;;;5010535;28;20513;-50
2023/03/31 01:49:44;;;;;;;12.73;6.43;;;6.70;99.90;;;;;;5010144;28;20096;-50
2023/03/31 01:52:55;;;;;;;11.35;6.40;;;6.70;99.90;;;;;;5009561;28;20038;-50
2023/03/31 01:55:28;;;;;;;11.10;6.50;;;6.70;99.90;;;;;;4967795;28;20062;-51
2023/03/31 01:58:20;;;;;;;9.20;6.25;;;6.80;99.90;;;;;;5007148;28;20462;-52
2023/03/31 02:01:25;;;;;;;9.02;5.50;;;6.80;99.90;;;;;;5010839;28;20104;-52
2023/03/31 02:03:57;;;;;;;10.40;5.50;;;6.70;99.90;;;;;;5012286;28;20046;-51
2023/03/31 02:06:30;;;;;;;12.32;5.75;;;6.70;99.90;;;;;;5010631;28;20128;-53
2023/03/31 02:09:02;;;;;;;14.10;6.65;;;6.70;99.90;;;;;;5011729;28;20060;-52
2023/03/31 02:11:31;;;;;;;12.00;6.15;;;6.60;99.90;;;;;;5006444;28;20046;-50
2023/03/31 02:14:02;;;;;;;9.15;6.18;;;6.60;99.90;;;;;;5008304;28;20046;-53
2023/03/31 02:16:34;;;;;;;11.35;6.28;;;6.60;99.90;;;;;;5009891;28;20041;-54
2023/03/31 02:19:04;;;;;;;11.80;6.20;;;6.60;99.90;;;;;;5011063;28;20061;-52
2023/03/31 02:21:33;;;;;;;8.18;5.50;;;6.60;99.90;;;;;;5011753;28;20038;-52
2023/03/31 02:24:03;;;;;;;13.98;6.35;;;6.50;99.90;;;;;;5015744;28;20502;-52
2023/03/31 02:26:36;;;;;;;9.02;5.68;;;6.50;99.90;;;;;;5010168;28;20046;-52
2023/03/31 02:29:03;;;;;;;9.70;5.30;;;6.40;99.90;;;;;;4992808;28;20469;-50
2023/03/31 02:32:00;;;;;;;10.88;6.95;;;6.40;99.90;;;;;;5009306;28;20133;-51
2023/03/31 02:34:26;;;;;;;10.98;6.00;;;6.40;99.90;;;;;;4983910;28;20042;-52
2023/03/31 02:36:54;;;;;;;12.70;7.10;;;6.40;99.90;;;;;;5009018;28;20041;-52
2023/03/31 02:39:24;;;;;;;;;;;6.50;99.90;;;;;;5009861;28;20045;-53
2023/03/31 02:41:52;;;;;;;9.68;5.90;;;6.60;99.90;;;;;;5010104;28;19921;-52
2023/03/31 02:44:19;;;;;;;;;;;6.60;99.90;;;;;;5011146;28;20169;-51
2023/03/31 02:46:47;;;;;;;13.30;7.40;;;6.70;99.90;;;;;;5000946;28;19965;-51
2023/03/31 02:49:15;;;;;;;17.83;7.72;;;6.70;99.90;;;;;;5005841;28;20058;-52
2023/03/31 02:52:00;;;;;;;11.65;6.93;;;6.70;99.90;;;;;;5004639;28;20108;-53
2023/03/31 02:55:04;;;;;;;13.63;7.45;;;6.70;99.90;;;;;;4992825;28;20574;-50
2023/03/31 02:58:13;;;;;;;14.10;7.07;;;6.70;99.90;;;;;;5000667;28;20097;-51
2023/03/31 03:01:03;;;;;;;11.93;7.60;;;6.70;99.90;;;;;;4985182;28;20046;-51
2023/03/31 03:03:41;;;;;;;13.30;7.43;;;6.60;99.90;;;;;;5006368;28;20050;-51
2023/03/31 03:06:17;;;;;;;14.40;7.20;;;6.60;99.90;;;;;;5010209;28;20068;-51
2023/03/31 03:09:15;;;;;;;10.52;6.72;;;6.60;99.90;;;;;;4992534;28;20336;-53
2023/03/31 03:12:05;;;;;;;15.05;7.70;;;6.60;99.90;;;;;;5010074;28;20521;-51
2023/03/31 03:14:56;;;;;;;14.13;7.25;;;6.60;99.90;;;;;;5018375;22;20052;-51
2023/03/31 03:17:33;;;;;;;15.15;8.00;;;6.70;99.90;;;;;;5022892;28;20049;-52
2023/03/31 03:20:06;;;;;;;14.40;7.60;;;6.70;99.90;;;;;;5029744;28;20085;-51
2023/03/31 03:22:34;;;;;;;17.75;7.90;;;6.70;99.90;;;;;;5030908;28;20038;-51
2023/03/31 03:25:01;;;;;;;13.07;7.78;;;6.70;99.90;;;;;;5020028;28;20069;-51
2023/03/31 03:27:28;;;;;;;15.00;8.00;;;6.70;99.90;;;;;;5011265;28;20445;-51
2023/03/31 03:29:55;;;;;;;14.43;8.35;;;6.70;99.90;;;;;;5010348;28;20054;-51
2023/03/31 03:32:21;;;;;;;15.75;8.60;;;6.70;99.90;;;;;;5030886;28;20045;-51
2023/03/31 03:34:48;;;;;;;16.55;9.25;;;6.70;99.90;;;;;;5029062;28;20183;-52
2023/03/31 03:37:15;;;;;;;20.83;9.65;;;6.60;99.90;;;;;;5028775;28;20053;-50
2023/03/31 03:39:41;;;;;;;19.88;9.75;;;6.70;99.90;;;;;;5010671;28;20112;-51
2023/03/31 03:42:08;;;;;;;17.85;9.82;;;6.70;99.90;;;;;;5011150;28;20089;-51
2023/03/31 03:44:35;;;;;;;14.70;8.27;;;6.70;99.90;;;;;;5016320;28;20076;-51
2023/03/31 03:47:02;;;;;;;9.77;6.45;;;6.70;99.90;;;;;;5030568;28;20148;-51
2023/03/31 03:49:29;;;;;;;15.35;8.75;;;6.70;99.90;;;;;;5022647;28;20502;-51
2023/03/31 03:51:55;;;;;;;13.32;7.95;;;6.70;99.90;;;;;;5030587;28;20443;-50
2023/03/31 03:54:22;;;;;;;12.48;6.20;;;6.70;99.90;;;;;;5029682;28;20046;-51
2023/03/31 03:56:49;;;;;;;13.48;7.53;;;6.70;99.90;;;;;;5033703;28;20049;-52
2023/03/31 03:59:19;;;;;;;13.77;7.97;;;6.70;99.90;;;;;;5020199;28;20042;-51
2023/03/31 04:01:46;;;;;;;15.13;8.43;;;6.70;99.90;;;;;;5014506;28;20041;-52
2023/03/31 04:04:13;;;;;;;15.48;8.90;;;6.80;99.90;;;;;;5024553;28;20056;-52
2023/03/31 04:06:39;;;;;;;18.45;9.75;;;6.80;99.90;;;;;;5034007;28;20068;-51
2023/03/31 04:09:06;;;;;;;20.20;9.68;;;6.90;99.90;;;;;;5031942;28;20096;-51
2023/03/31 04:11:33;;;;;;;16.38;10.40;;;6.90;99.90;;;;;;5031387;28;20087;-52
2023/03/31 04:14:00;;;;;;;20.02;11.27;;;6.90;99.90;;;;;;5013715;28;20530;-51
2023/03/31 04:16:27;;;;;;;21.63;11.02;;;6.90;99.90;;;;;;5013771;28;20522;-51
2023/03/31 04:18:57;;;;;;;22.13;11.50;;;6.90;99.90;;;;;;5029771;28;20541;-50
2023/03/31 04:21:24;;;;;;;22.45;11.38;;;6.90;99.90;;;;;;5030782;28;20048;-51
2023/03/31 04:24:00;;;;;;;22.60;12.05;;;6.90;99.90;;;;;;5030038;28;20041;-51
2023/03/31 04:26:30;;;;;;;23.63;12.75;;;6.90;99.90;;;;;;5032913;28;20099;-54
2023/03/31 04:29:00;;;;;;;21.13;12.57;;;6.90;99.90;;;;;;5014392;28;20495;-53
2023/03/31 04:31:29;;;;;;;22.05;12.88;;;7.00;99.90;;;;;;5016022;28;20536;-53
2023/03/31 04:34:01;;;;;;;20.55;12.52;;;7.00;99.90;;;;;;5013580;28;20033;-50
2023/03/31 04:36:30;;;;;;;22.30;12.27;;;7.00;99.90;;;;;;5012917;28;20101;-51
2023/03/31 04:38:57;;;;;;;19.33;11.98;;;7.00;99.90;;;;;;5008137;28;20054;-51
2023/03/31 04:41:26;;;;;;;23.95;11.95;;;7.00;99.90;;;;;;4993854;28;20101;-51
2023/03/31 04:43:53;;;;;;;21.92;11.55;;;7.00;99.90;;;;;;4993843;28;20047;-52
2023/03/31 04:46:19;;;;;;;24.27;11.95;;;6.90;99.90;;;;;;5002409;28;20100;-52
2023/03/31 04:48:46;;;;;;;22.70;11.88;;;6.90;99.90;;;;;;4995769;28;20559;-51
2023/03/31 04:51:16;;;;;;;23.60;13.30;;;6.90;99.90;;;;;;5023413;28;20041;-53
2023/03/31 04:53:42;;;;;;;19.73;11.25;;;6.90;99.90;;;;;;5027119;28;20076;-50
2023/03/31 04:56:09;;;;;;;24.33;11.77;;;6.90;99.90;;;;;;5009774;28;20546;-51
2023/03/31 04:58:36;;;;;;;22.50;12.32;;;6.90;99.90;;;;;;5012807;28;20045;-51
2023/03/31 05:01:06;;;;;;;21.17;11.20;;;6.90;99.90;;;;;;5015568;28;20045;-52
2023/03/31 05:03:34;;;;;;;23.10;11.77;;;6.90;99.90;;;;;;5023837;28;20052;-51
2023/03/31 05:06:01;;;;;;;21.20;12.68;;;6.90;99.90;;;;;;5031508;28;20491;-51
2023/03/31 05:08:27;;;;;;;23.73;12.15;;;6.90;99.90;;;;;;5032639;28;20111;-51
2023/03/31 05:10:54;;;;;;;19.15;11.23;;;6.90;99.90;;;;;;5012232;28;20034;-50
2023/03/31 05:13:21;;;;;;;18.83;11.00;;;7.00;99.90;;;;;;5003158;28;20568;-50
2023/03/31 05:15:49;;;;;;;18.02;10.82;;;6.90;99.90;;;;;;5009084;28;20088;-51
2023/03/31 05:18:17;;;;;;;18.75;11.15;;;6.90;99.90;;;;;;5011450;28;20399;-50
2023/03/31 05:20:44;;;;;;;24.27;12.07;;;6.90;99.90;;;;;;5002129;28;20065;-53
2023/03/31 05:23:11;;;;;;;21.60;11.77;;;6.90;99.90;;;;;;5003636;28;20038;-52
2023/03/31 05:25:38;;;;;;;22.92;11.15;;;6.90;99.90;;;;;;4994303;28;20042;-52
2023/03/31 05:28:05;;;;;;;23.05;11.35;;;6.80;99.90;;;;;;5030149;28;20038;-50
2023/03/31 05:30:31;;;;;;;26.70;12.18;;;6.80;99.90;;;;;;5024049;28;20056;-51
2023/03/31 05:32:58;;;;;;;17.05;9.20;;;6.80;99.90;;;;;;5032058;28;20072;-52
2023/03/31 05:35:25;;;;;;;25.35;13.40;;;6.80;99.90;;;;;;5025185;28;20092;-53
2023/03/31 05:37:51;;;;;;;21.83;12.93;;;6.90;99.90;;;;;;5030342;28;20053;-51
2023/03/31 05:40:18;;;;;;;21.85;12.02;;;6.90;99.90;;;;;;5029950;28;20493;-54
2023/03/31 05:42:45;;;;;;;28.83;13.40;;;6.90;99.90;;;;;;5026423;28;20069;-54
2023/03/31 05:45:12;;;;;;;22.50;12.82;;;6.90;99.90;;;;;;5015904;28;20735;-51
2023/03/31 05:47:39;;;;;;;22.27;11.77;;;6.90;99.90;;;;;;5031799;28;20446;-53
2023/03/31 05:50:07;;;;;;;20.15;11.68;;;6.90;99.90;;;;;;5030396;28;20045;-51
2023/03/31 05:52:35;;;;;;;23.13;11.68;;;6.90;99.90;;;;;;5031344;28;20068;-52
2023/03/31 05:55:03;;;;;;;21.23;10.70;;;6.90;99.90;;;;;;5024902;28;20058;-52
2023/03/31 05:57:30;;;;;;;19.15;10.10;;;6.90;99.90;;;;;;5031701;28;20053;-51
2023/03/31 05:59:57;;;;;;;18.48;11.02;;;6.90;99.90;;;;;;5031073;28;20042;-51
2023/03/31 06:02:24;;;;;;;22.23;10.75;;;6.90;99.90;;;;;;5028232;28;20069;-50
2023/03/31 06:04:51;;;;;;;21.05;11.32;;;6.90;99.90;;;;;;5028037;28;20033;-50
2023/03/31 06:07:18;;;;;;;19.00;11.38;;;6.90;99.90;;;;;;5020509;28;20108;-51
2023/03/31 06:09:45;;;;;;;18.15;11.73;;;7.00;99.90;;;;;;5008145;28;20038;-53
2023/03/31 06:12:11;;;;;;;19.02;10.90;;;7.00;99.90;;;;;;5013235;28;20573;-52
2023/03/31 06:14:38;;;;;;;19.13;10.57;;;7.10;99.90;;;;;;5031409;28;20041;-51
2023/03/31 06:17:05;;;;;;;20.58;11.73;;;7.20;99.90;;;;;;5029423;28;20033;-52
2023/03/31 06:19:33;;;;;;;25.85;13.82;;;7.30;99.90;;;;;;5012381;28;20045;-52
2023/03/31 06:22:00;;;;;;;23.90;12.77;;;7.40;99.90;;;;;;5017840;28;20041;-51
2023/03/31 06:24:27;;;;;;;;;;;7.50;99.90;;;;;;5007248;28;20044;-51
2023/03/31 06:26:53;;;;;;;19.23;9.48;;;7.50;99.90;;;;;;5011787;28;20293;-51
2023/03/31 06:29:20;;;;;;;13.45;8.27;;;7.50;99.90;;;;;;5025810;28;20041;-52
2023/03/31 06:31:47;;;;;;;20.77;10.73;;;7.60;99.90;;;;;;5007698;28;20042;-54
2023/03/31 06:34:14;;;;;;;21.25;12.05;;;7.70;99.90;;;;;;5010474;28;20100;-52
2023/03/31 06:36:40;;;;;;;21.52;12.05;;;7.90;99.90;;;;;;5011269;28;20560;-51
2023/03/31 06:39:07;;;;;;;19.90;11.63;;;8.00;99.90;;;;;;5010692;28;20078;-51
2023/03/31 06:41:34;;;;;;;15.02;8.88;;;8.00;99.90;;;;;;5011023;28;20069;-54
2023/03/31 06:44:01;;;;;;;20.42;11.23;;;8.20;99.90;;;;;;5009676;28;20092;-50
2023/03/31 06:46:27;;;;;;;19.67;11.95;;;8.50;99.90;;;;;;5008897;28;20462;-51
2023/03/31 06:48:54;;;;;;;17.30;10.32;;;8.70;99.90;;;;;;5025750;28;20042;-54
2023/03/31 06:51:21;;;;;;;19.73;10.88;;;8.70;99.90;;;;;;5027836;28;20124;-51
2023/03/31 06:53:47;;;;;;;18.23;10.27;;;8.70;99.90;;;;;;5025890;28;20049;-54
2023/03/31 06:56:15;;;;;;;18.08;10.52;;;8.50;99.90;;;;;;5028907;28;20053;-51
2023/03/31 06:58:41;;;;;;;21.27;11.25;;;8.40;99.90;;;;;;5030085;28;20470;-51
2023/03/31 07:01:09;;;;;;;17.88;10.98;;;8.40;99.90;;;;;;5012971;28;20100;-54
2023/03/31 07:03:37;;;;;;;16.40;10.55;;;8.30;99.90;;;;;;5011219;28;20046;-50
2023/03/31 07:06:04;;;;;;;16.63;9.85;;;8.40;99.90;;;;;;4994147;28;20564;-50
2023/03/31 07:08:31;;;;;;;16.77;8.93;;;8.50;99.90;;;;;;5030770;28;20206;-50
2023/03/31 07:10:59;;;;;;;;;;;8.40;99.90;;;;;;5031106;28;20041;-51
2023/03/31 07:13:27;;;;;;;19.60;10.60;;;8.30;99.90;;;;;;5027683;28;19973;-51
2023/03/31 07:15:53;;;;;;;19.20;10.80;;;8.20;99.90;;;;;;5010665;28;20116;-52
2023/03/31 07:18:24;;;;;;;19.15;12.07;;;8.20;99.90;;;;;;5011047;28;20053;-51
2023/03/31 07:20:52;;;;;;;17.10;10.02;;;8.30;99.90;;;;;;5017384;28;20057;-52
2023/03/31 07:23:18;;;;;;;19.75;11.27;;;8.20;99.90;;;;;;5030886;28;20069;-51
2023/03/31 07:25:46;;;;;;;19.23;9.88;;;8.00;99.90;;;;;;5056377;22;20065;-50
2023/03/31 07:28:12;;;;;;;;;;;7.90;99.90;;;;;;5069051;28;20089;-48
2023/03/31 07:30:40;;;;;;;23.80;11.57;;;7.80;99.90;;;;;;5070426;28;20388;-49
2023/03/31 07:33:07;;;;;;;23.83;12.95;;;7.80;99.90;;;;;;5073335;28;20131;-48
2023/03/31 07:35:40;;;;;;;23.38;13.25;;;7.80;99.90;;;;;;5051742;28;20050;-48
2023/03/31 07:38:09;;;;;;;20.52;12.35;;;7.90;99.90;;;;;;5074346;28;20064;-48
2023/03/31 07:40:36;;;;;;;19.30;12.85;;;7.90;99.90;;;;;;5074081;28;20503;-48
2023/03/31 07:43:03;;;;;;;25.25;13.32;;;7.80;99.90;;;;;;5069901;28;20090;-51
2023/03/31 07:45:31;;;;;;;21.80;12.10;;;7.90;99.90;;;;;;5061899;28;20505;-48
2023/03/31 07:47:58;;;;;;;21.40;12.60;;;7.90;99.90;;;;;;5054662;28;20060;-49
2023/03/31 07:50:24;;;;;;;19.83;11.68;;;7.80;99.90;;;;;;5053786;28;20128;-48
2023/03/31 07:52:53;;;;;;;18.35;11.02;;;7.90;99.90;;;;;;5068104;28;20126;-48
2023/03/31 07:55:22;;;;;;;18.80;10.45;;;8.10;99.90;;;;;;5056325;28;20109;-49
2023/03/31 07:57:50;;;;;;;19.67;10.15;;;8.30;99.90;;;;;;5074098;28;20044;-48
2023/03/31 08:00:17;;;;;;;16.42;9.02;;;8.40;99.90;;;;;;5070889;28;20497;-49
2023/03/31 08:02:44;;;;;;;;;;;8.40;99.90;;;;;;5065274;28;20067;-48
2023/03/31 08:05:13;;;;;;;16.98;10.32;;;8.40;99.90;;;;;;5073008;28;19995;-47
2023/03/31 08:07:42;;;;;;;13.93;8.77;;;8.50;99.90;;;;;;5073734;28;20036;-48
2023/03/31 08:10:15;;;;;;;14.52;9.00;;;8.50;99.90;;;;;;5057709;28;20045;-49
2023/03/31 08:12:42;;;;;;;16.42;9.43;;;8.60;99.90;;;;;;5054169;28;20468;-47
2023/03/31 08:15:10;;;;;;;16.05;9.27;;;8.60;99.90;;;;;;5054118;28;20094;-49
2023/03/31 08:17:37;;;;;;;18.13;9.88;;;8.60;99.90;;;;;;5067754;28;20400;-50
2023/03/31 08:20:09;;;;;;;19.52;9.70;;;8.60;99.90;;;;;;5073024;28;20036;-50
2023/03/31 08:22:36;;;;;;;22.92;9.98;;;8.70;99.90;;;;;;5088717;28;20045;-49
2023/03/31 08:25:04;;;;;;;15.85;9.88;;;8.70;99.90;;;;;;5070816;28;20136;-51
2023/03/31 08:27:32;;;;;;;17.70;10.20;;;8.70;99.90;;;;;;5073354;28;20217;-49
2023/03/31 08:30:03;;;;;;;15.65;10.05;;;8.70;99.90;;;;;;5066828;28;20071;-49
2023/03/31 08:32:31;;;;;;;18.80;9.95;;;8.80;99.90;;;;;;5073112;28;20033;-50
2023/03/31 08:34:59;;;;;;;18.73;10.05;;;8.90;99.90;;;;;;5072148;28;20111;-49
2023/03/31 08:37:27;;;;;;;;;;;9.00;99.90;;;;;;5073835;28;20574;-48
2023/03/31 08:39:54;;;;;;;28.42;14.23;;;9.20;99.90;;;;;;5048904;28;19974;-50
2023/03/31 08:42:31;;;;;;;18.02;10.07;;;9.70;99.90;;;;;;5052912;28;20047;-50
2023/03/31 08:45:08;;;;;;;18.80;11.32;;;9.80;99.90;;;;;;5051622;28;20040;-48
2023/03/31 08:47:36;;;;;;;19.00;10.55;;;10.00;99.90;;;;;;5052970;28;20077;-49
2023/03/31 08:50:15;;;;;;;13.52;8.98;;;10.10;99.90;;;;;;5052234;28;20051;-48
2023/03/31 08:52:48;;;;;;;16.63;9.38;;;10.20;99.90;;;;;;5051967;28;20527;-47
2023/03/31 08:55:35;;;;;;;13.43;9.02;;;10.30;99.90;;;;;;5072810;28;20033;-50
2023/03/31 08:58:13;;;;;;;16.40;9.13;;;10.50;99.90;;;;;;5072309;28;20044;-50
2023/03/31 09:00:46;;;;;;;;;;;10.80;99.90;;;;;;5069847;28;20441;-48
2023/03/31 09:03:29;;;;;;;14.60;9.38;;;10.70;99.90;;;;;;5071575;28;19920;-48
2023/03/31 09:06:07;;;;;;;18.75;8.95;;;10.40;99.90;;;;;;5069623;28;20036;-48
2023/03/31 09:08:39;;;;;;;18.80;9.63;;;10.20;99.90;;;;;;5072152;28;20443;-48
2023/03/31 09:11:19;;;;;;;18.63;8.90;;;10.10;99.90;;;;;;5071449;28;20090;-47
2023/03/31 09:13:46;;;;;;;19.42;10.98;;;10.00;99.90;;;;;;5072754;28;20106;-48
2023/03/31 09:16:14;;;;;;;19.15;9.40;;;10.10;99.90;;;;;;5070116;28;20056;-48
2023/03/31 09:18:46;;;;;;;17.30;9.80;;;10.50;99.90;;;;;;5071846;28;20049;-48
2023/03/31 09:21:16;;;;;;;12.55;8.27;;;10.80;99.90;;;;;;5072313;28;20076;-47
2023/03/31 09:23:56;;;;;;;13.13;8.65;;;11.10;99.90;;;;;;5068656;28;20117;-48
2023/03/31 09:26:43;;;;;;;15.07;9.13;;;11.30;99.90;;;;;;5057388;28;20404;-49
2023/03/31 09:29:23;;;;;;;12.75;7.28;;;11.40;99.90;;;;;;5071445;28;20049;-48
2023/03/31 09:31:50;;;;;;;14.30;8.85;;;11.50;99.90;;;;;;5060457;28;20119;-48
2023/03/31 09:34:32;;;;;;;13.30;7.63;;;11.40;99.90;;;;;;5067102;28;20044;-48
2023/03/31 09:36:59;;;;;;;14.40;8.10;;;11.20;99.90;;;;;;5051544;28;20060;-49
2023/03/31 09:39:26;;;;;;;13.68;7.95;;;10.90;99.90;;;;;;5051128;28;20048;-50
2023/03/31 09:41:54;;;;;;;17.73;8.32;;;10.60;99.90;;;;;;5048689;28;20060;-49
2023/03/31 09:44:40;;;;;;;18.45;9.20;;;10.20;99.90;;;;;;5061756;28;20463;-48
2023/03/31 09:47:41;;;;;;;16.05;8.65;;;9.90;99.90;;;;;;5071525;28;20076;-48
2023/03/31 09:50:11;;;;;;;15.55;9.90;;;9.80;99.90;;;;;;5062288;28;20044;-48
2023/03/31 09:52:59;;;;;;;15.68;9.80;;;9.70;99.90;;;;;;5070641;28;20048;-48
2023/03/31 09:55:45;;;;;;;19.45;9.98;;;9.60;99.90;;;;;;5071676;28;20130;-49
2023/03/31 09:58:15;;;;;;;16.90;10.18;;;9.70;99.90;;;;;;5062904;28;20123;-49
2023/03/31 10:00:57;;;;;;;20.50;10.63;;;9.70;99.90;;;;;;5071598;28;20049;-49
2023/03/31 10:03:24;;;;;;;21.17;10.60;;;9.80;99.90;;;;;;5063021;28;20102;-48
2023/03/31 10:05:53;;;;;;;19.88;11.18;;;10.10;99.90;;;;;;5071311;28;20068;-48
2023/03/31 10:08:51;;;;;;;18.65;10.75;;;10.30;99.90;;;;;;5065122;28;20064;-53
2023/03/31 10:11:18;;;;;;;25.43;12.23;;;10.50;99.90;;;;;;5068595;28;20087;-51
2023/03/31 10:13:51;;;;;;;18.38;9.40;;;10.80;99.90;;;;;;5058611;28;20129;-49
2023/03/31 10:16:29;;;;;;;14.70;7.95;;;11.10;99.90;;;;;;5055281;28;20090;-49
2023/03/31 10:19:30;;;;;;;15.15;8.35;;;11.50;99.90;;;;;;5058357;28;20495;-49
2023/03/31 10:22:15;;;;;;;16.83;10.60;;;11.60;99.90;;;;;;5065435;28;20068;-51
2023/03/31 10:24:44;;;;;;;14.32;8.68;;;12.00;99.90;;;;;;5050849;28;20029;-49
2023/03/31 10:27:24;;;;;;;15.13;7.90;;;12.00;99.90;;;;;;5048842;28;20072;-50
2023/03/31 10:29:55;;;;;;;12.70;7.18;;;12.20;99.90;;;;;;5047144;28;20068;-48
2023/03/31 10:32:31;;;;;;;10.70;6.72;;;12.50;99.90;;;;;;5051135;28;20080;-46
2023/03/31 10:35:06;;;;;;;7.18;5.18;;;12.80;99.90;;;;;;5050423;28;20083;-53
2023/03/31 10:37:35;;;;;;;7.25;4.47;;;12.80;99.90;;;;;;5055577;28;20045;-48
2023/03/31 10:40:13;;;;;;;9.57;4.78;;;12.70;99.90;;;;;;5070642;28;20036;-49
2023/03/31 10:42:43;;;;;;;7.72;4.85;;;12.90;99.90;;;;;;5069641;28;20118;-47
2023/03/31 10:45:11;;;;;;;10.00;5.30;;;13.00;99.90;;;;;;5071150;28;20548;-49
2023/03/31 10:47:52;;;;;;;9.00;5.65;;;12.80;99.90;;;;;;5066777;28;20064;-50
2023/03/31 10:50:29;;;;;;;7.93;5.10;;;12.40;99.90;;;;;;5070737;28;20041;-50
2023/03/31 10:53:10;;;;;;;6.68;3.58;;;12.50;99.90;;;;;;5068142;28;20093;-48
2023/03/31 10:56:05;;;;;;;9.35;4.00;;;12.50;99.90;;;;;;5070532;28;20072;-49
2023/03/31 10:58:58;;;;;;;7.32;4.00;;;12.70;99.90;;;;;;5060569;28;20114;-47
2023/03/31 11:01:46;;;;;;;7.68;4.85;;;13.10;99.90;;;;;;5043998;28;20038;-49
2023/03/31 11:04:50;;;;;;;7.13;4.50;;;13.40;99.90;;;;;;5051579;28;20045;-49
2023/03/31 11:07:41;;;;;;;6.82;4.53;;;13.10;99.90;;;;;;5057850;28;20549;-49
2023/03/31 11:10:33;;;;;;;10.57;5.75;;;12.50;99.90;;;;;;5073028;28;20052;-49
2023/03/31 11:13:25;;;;;;;7.45;4.95;;;12.30;99.90;;;;;;5070225;28;20037;-49
2023/03/31 11:16:06;;;;;;;9.43;5.45;;;12.20;99.90;;;;;;5055460;28;20041;-49
2023/03/31 11:18:54;;;;;;;9.93;5.82;;;12.00;99.90;;;;;;5054308;28;20049;-48
2023/03/31 11:21:33;;;;;;;8.05;4.90;;;11.70;99.90;;;;;;5059498;28;20405;-49
2023/03/31 11:24:18;;;;;;;9.07;4.95;;;11.60;99.90;;;;;;5073010;28;20101;-49
2023/03/31 11:27:21;;;;;;;8.68;5.82;;;11.60;99.90;;;;;;5066189;28;20063;-48
2023/03/31 11:30:03;;;;;;;9.60;5.75;;;11.60;99.90;;;;;;5072286;28;20094;-48
2023/03/31 11:32:44;;;;;;;9.63;5.60;;;11.70;99.90;;;;;;5074444;28;20101;-49
2023/03/31 11:35:13;;;;;;;9.32;6.10;;;11.70;99.90;;;;;;5061217;28;20064;-49
2023/03/31 11:38:00;;;;;;;15.00;8.70;;;11.70;99.90;;;;;;5054476;28;20055;-47
2023/03/31 11:40:55;;;;;;;11.80;6.55;;;11.80;99.90;;;;;;5052382;28;20417;-48
2023/03/31 11:43:47;;;;;;;7.40;5.20;;;11.70;99.90;;;;;;5059056;28;20032;-48
2023/03/31 11:46:22;;;;;;;6.85;5.30;;;11.70;99.90;;;;;;5074026;28;20071;-50
2023/03/31 11:49:00;;;;;;;5.85;4.20;;;11.60;99.90;;;;;;5064881;28;20497;-50
2023/03/31 11:51:29;;;;;;;;;;;11.50;99.90;;;;;;5047891;28;20040;-48
2023/03/31 11:53:58;;;;;;;9.27;4.70;;;11.40;99.90;;;;;;5054044;28;20415;-48
2023/03/31 11:56:34;;;;;;;12.23;7.20;;;11.30;99.90;;;;;;5065704;28;20041;-48
2023/03/31 11:59:03;;;;;;;13.30;7.65;;;11.20;99.90;;;;;;5073357;28;20463;-48
2023/03/31 12:01:45;;;;;;;10.95;6.07;;;11.20;99.90;;;;;;5066960;28;20047;-49
2023/03/31 12:04:33;;;;;;;11.50;7.07;;;11.10;99.90;;;;;;5073134;28;20535;-48
2023/03/31 12:07:25;;;;;;;11.02;5.82;;;11.10;99.90;;;;;;5074275;28;20071;-48
2023/03/31 12:10:20;;;;;;;9.40;4.60;;;11.10;99.90;;;;;;5049875;28;20045;-50
2023/03/31 12:12:59;;;;;;;9.70;5.47;;;10.90;99.90;;;;;;5053859;28;20044;-48
2023/03/31 12:15:33;;;;;;;9.13;5.18;;;10.80;99.90;;;;;;5047189;28;20077;-48
2023/03/31 12:18:12;;;;;;;11.63;6.78;;;10.70;99.90;;;;;;5052780;28;20068;-49
2023/03/31 12:20:44;;;;;;;14.60;6.22;;;10.70;99.90;;;;;;5053291;28;20053;-47
2023/03/31 12:23:16;;;;;;;17.13;9.80;;;10.40;99.90;;;;;;5053414;28;20033;-48
2023/03/31 12:26:08;;;;;;;15.63;8.05;;;10.40;99.90;;;;;;5053398;28;20064;-48
2023/03/31 12:28:39;;;;;;;11.00;7.30;;;10.40;99.90;;;;;;5057885;28;20075;-48
2023/03/31 12:31:10;;;;;;;13.18;7.13;;;10.40;99.90;;;;;;5073296;28;20094;-53
2023/03/31 12:33:42;;;;;;;16.70;9.55;;;10.40;99.90;;;;;;5054475;28;20041;-48
2023/03/31 12:36:27;;;;;;;20.77;10.52;;;10.30;99.90;;;;;;5053124;28;20045;-53
2023/03/31 12:39:11;;;;;;;20.90;10.70;;;10.30;99.90;;;;;;5051611;28;20047;-49
2023/03/31 12:42:15;;;;;;;16.80;11.55;;;10.20;99.90;;;;;;5050425;28;20520;-51
2023/03/31 12:45:23;;;;;;;22.65;11.70;;;10.20;99.90;;;;;;5053239;28;20091;-48
2023/03/31 12:48:28;;;;;;;14.55;8.48;;;10.30;99.90;;;;;;5060111;28;20650;-48
2023/03/31 12:51:09;;;;;;;15.27;7.95;;;10.20;99.90;;;;;;5072890;28;20048;-50
2023/03/31 12:53:56;;;;;;;16.17;8.38;;;10.20;99.90;;;;;;5050794;28;20375;-47
2023/03/31 12:56:26;;;;;;;11.10;7.63;;;10.20;99.90;;;;;;5052107;28;20055;-48
2023/03/31 12:58:52;;;;;;;10.00;5.93;;;10.30;99.90;;;;;;5052709;28;20501;-48
2023/03/31 13:01:23;;;;;;;11.52;5.97;;;10.30;99.90;;;;;;5055569;28;20493;-49
2023/03/31 13:04:17;;;;;;;12.85;7.38;;;10.30;99.90;;;;;;5072686;28;20488;-49
2023/03/31 13:06:53;;;;;;;9.02;5.18;;;10.40;99.90;;;;;;5064088;28;20040;-48
2023/03/31 13:09:32;;;;;;;7.85;5.13;;;10.30;99.90;;;;;;5072517;28;20028;-50
2023/03/31 13:12:06;;;;;;;15.13;8.00;;;10.30;99.90;;;;;;5072036;28;20060;-48
2023/03/31 13:14:39;;;;;;;19.48;9.40;;;10.30;99.90;;;;;;5071570;28;20508;-48
2023/03/31 13:17:24;;;;;;;12.93;5.05;;;10.30;99.90;;;;;;5057388;28;20113;-49
2023/03/31 13:19:53;;;;;;;7.30;3.85;;;10.30;99.90;;;;;;5032246;28;20148;-48
2023/03/31 13:22:51;;;;;;;5.18;3.58;;;10.40;99.90;;;;;;5032818;28;20042;-48
2023/03/31 13:26:09;;;;;;;8.07;3.90;;;10.40;99.90;;;;;;5052371;22;20148;-50